createdAt,value
2023-04-15T00:00:59.588Z,7.07
2023-04-15T00:03:27.006Z,7.11
2023-04-15T00:05:54.388Z,7.03
2023-04-15T00:08:20.900Z,7.05
2023-04-15T00:10:47.899Z,7.01
2023-04-15T00:13:15.313Z,7.07
2023-04-15T00:15:42.700Z,7.04
2023-04-15T00:18:09.748Z,6.99
2023-04-15T00:20:37.139Z,7.05
2023-04-15T00:23:04.212Z,7.07
2023-04-15T00:25:31.204Z,7.03
2023-04-15T00:27:57.805Z,7.04
2023-04-15T00:30:24.343Z,7.06
2023-04-15T00:32:50.923Z,7.07
2023-04-15T00:35:18.227Z,7.06
2023-04-15T00:37:46.180Z,7.11
2023-04-15T00:40:13.752Z,7.10
2023-04-15T00:42:40.747Z,7.11
2023-04-15T00:45:08.880Z,7.11
2023-04-15T00:47:37.239Z,7.16
2023-04-15T00:50:05.029Z,7.11
2023-04-15T00:52:32.024Z,7.15
2023-04-15T00:54:59.503Z,7.11
2023-04-15T00:57:26.250Z,7.14
2023-04-15T00:59:52.983Z,7.12
2023-04-15T01:02:19.981Z,7.16
2023-04-15T01:04:47.092Z,7.14
2023-04-15T01:07:13.820Z,7.16
2023-04-15T01:09:40.858Z,7.17
2023-04-15T01:12:08.546Z,7.16
2023-04-15T01:14:35.830Z,7.13
2023-04-15T01:17:02.311Z,7.06
2023-04-15T01:19:29.262Z,7.01
2023-04-15T01:21:56.432Z,7.04
2023-04-15T01:24:24.076Z,7.03
2023-04-15T01:26:50.531Z,7.08
2023-04-15T01:29:18.070Z,7.08
2023-04-15T01:31:55.971Z,7.12
2023-04-15T01:34:23.344Z,7.08
2023-04-15T01:36:50.066Z,7.13
2023-04-15T01:39:16.672Z,7.10
2023-04-15T01:41:43.341Z,7.11
2023-04-15T01:44:10.097Z,7.11
2023-04-15T01:46:37.283Z,7.13
2023-04-15T01:49:04.046Z,7.12
2023-04-15T01:51:30.587Z,7.12
2023-04-15T01:53:57.074Z,7.21
2023-04-15T01:56:24.565Z,7.13
2023-04-15T01:58:51.794Z,7.13
2023-04-15T02:01:19.825Z,7.13
2023-04-15T02:03:47.776Z,7.18
2023-04-15T02:06:14.714Z,7.17
2023-04-15T02:08:41.240Z,7.16
2023-04-15T02:11:08.190Z,7.10
2023-04-15T02:13:34.919Z,7.12
2023-04-15T02:16:01.686Z,7.15
2023-04-15T02:18:29.137Z,7.14
2023-04-15T02:20:58.354Z,7.13
2023-04-15T02:23:25.590Z,7.15
2023-04-15T02:25:53.355Z,7.10
2023-04-15T02:28:21.805Z,7.10
2023-04-15T02:30:52.640Z,7.15
2023-04-15T02:33:20.284Z,7.03
2023-04-15T02:35:47.323Z,7.06
2023-04-15T02:38:14.784Z,7.04
2023-04-15T02:40:41.618Z,7.05
2023-04-15T02:43:08.248Z,7.07
2023-04-15T02:45:34.875Z,7.03
2023-04-15T02:48:06.160Z,7.07
2023-04-15T02:50:32.896Z,7.19
2023-04-15T02:53:01.174Z,7.11
2023-04-15T02:55:27.821Z,7.22
2023-04-15T02:57:54.351Z,7.14
2023-04-15T03:00:20.941Z,7.10
2023-04-15T03:02:47.601Z,7.15
2023-04-15T03:05:14.863Z,7.13
2023-04-15T03:07:41.460Z,7.10
2023-04-15T03:10:08.651Z,7.10
2023-04-15T03:12:35.108Z,7.11
2023-04-15T03:15:02.151Z,7.10
2023-04-15T03:17:28.963Z,7.14
2023-04-15T03:19:55.495Z,7.11
2023-04-15T03:22:22.100Z,7.13
2023-04-15T03:24:48.719Z,7.08
2023-04-15T03:27:15.360Z,7.17
2023-04-15T03:29:42.036Z,7.11
2023-04-15T03:32:08.742Z,7.12
2023-04-15T03:34:35.218Z,7.10
2023-04-15T03:37:01.766Z,7.19
2023-04-15T03:39:28.374Z,7.20
2023-04-15T03:41:54.798Z,7.16
2023-04-15T03:44:21.392Z,7.20
2023-04-15T03:46:48.222Z,7.22
2023-04-15T03:49:14.783Z,7.24
2023-04-15T03:51:41.340Z,7.19
2023-04-15T03:54:07.975Z,7.19
2023-04-15T03:56:34.628Z,7.18
2023-04-15T03:59:01.787Z,7.28
2023-04-15T04:01:28.488Z,7.13
2023-04-15T04:03:55.235Z,7.18
2023-04-15T04:06:22.049Z,7.20
2023-04-15T04:08:48.469Z,7.17
2023-04-15T04:11:14.891Z,7.25
2023-04-15T04:13:41.468Z,7.20
2023-04-15T04:16:08.368Z,7.21
2023-04-15T04:18:34.995Z,7.22
2023-04-15T04:21:01.640Z,7.22
2023-04-15T04:23:28.338Z,7.22
2023-04-15T04:25:54.891Z,7.24
2023-04-15T04:28:21.702Z,7.29
2023-04-15T04:30:48.290Z,7.28
2023-04-15T04:33:14.877Z,7.28
2023-04-15T04:35:41.481Z,7.29
2023-04-15T04:38:08.056Z,7.28
2023-04-15T04:40:34.538Z,7.26
2023-04-15T04:43:01.315Z,7.29
2023-04-15T04:45:27.822Z,7.28
2023-04-15T04:47:54.260Z,7.34
2023-04-15T04:50:21.121Z,7.27
2023-04-15T04:52:47.515Z,7.31
2023-04-15T04:55:13.927Z,7.36
2023-04-15T04:57:41.016Z,7.33
2023-04-15T05:00:09.058Z,7.30
2023-04-15T05:02:36.135Z,7.36
2023-04-15T05:05:02.849Z,7.34
2023-04-15T05:07:29.345Z,7.38
2023-04-15T05:09:56.025Z,7.38
2023-04-15T05:12:22.868Z,7.42
2023-04-15T05:14:49.434Z,7.47
2023-04-15T05:17:15.903Z,7.44
2023-04-15T05:19:42.447Z,7.64
2023-04-15T05:22:08.957Z,7.53
2023-04-15T05:24:36.495Z,7.38
2023-04-15T05:27:02.951Z,7.38
2023-04-15T05:29:29.562Z,7.37
2023-04-15T05:31:56.721Z,7.41
2023-04-15T05:34:23.215Z,7.51
2023-04-15T05:36:49.878Z,7.48
2023-04-15T05:39:16.591Z,7.42
2023-04-15T05:41:43.003Z,7.35
2023-04-15T05:44:09.457Z,7.34
2023-04-15T05:46:36.378Z,7.32
2023-04-15T05:49:03.205Z,7.28
2023-04-15T05:51:29.858Z,7.39
2023-04-15T05:53:56.832Z,7.33
2023-04-15T05:56:23.483Z,7.36
2023-04-15T05:58:53.381Z,7.37
2023-04-15T06:01:20.678Z,7.37
2023-04-15T06:03:47.509Z,7.38
2023-04-15T06:06:15.470Z,7.33
2023-04-15T06:08:42.007Z,7.38
2023-04-15T06:11:08.907Z,7.43
2023-04-15T06:13:35.704Z,7.53
2023-04-15T06:16:04.304Z,7.62
2023-04-15T06:18:30.971Z,7.64
2023-04-15T06:20:57.601Z,7.75
2023-04-15T06:23:25.280Z,7.68
2023-04-15T06:25:53.681Z,7.74
2023-04-15T06:28:20.408Z,7.79
2023-04-15T06:30:47.008Z,7.78
2023-04-15T06:33:13.726Z,7.66
2023-04-15T06:35:40.566Z,7.63
2023-04-15T06:38:07.158Z,7.77
2023-04-15T06:40:33.696Z,7.71
2023-04-15T06:43:00.326Z,7.76
2023-04-15T06:45:27.380Z,7.63
2023-04-15T06:47:53.987Z,7.80
2023-04-15T06:50:20.590Z,7.76
2023-04-15T06:52:47.068Z,7.90
2023-04-15T06:55:14.698Z,7.96
2023-04-15T06:57:41.549Z,7.86
2023-04-15T07:00:08.960Z,7.85
2023-04-15T07:02:35.571Z,7.94
2023-04-15T07:05:02.265Z,7.87
2023-04-15T07:07:28.972Z,7.95
2023-04-15T07:09:55.384Z,8.06
2023-04-15T07:12:21.959Z,7.92
2023-04-15T07:14:49.507Z,7.84
2023-04-15T07:17:16.481Z,7.87
2023-04-15T07:19:43.084Z,7.88
2023-04-15T07:22:09.585Z,8.01
2023-04-15T07:24:36.384Z,8.08
2023-04-15T07:27:04.135Z,7.97
2023-04-15T07:29:30.665Z,8.02
2023-04-15T07:31:57.338Z,8.13
2023-04-15T07:34:24.651Z,8.13
2023-04-15T07:36:52.029Z,8.21
2023-04-15T07:39:19.016Z,8.30
2023-04-15T07:41:46.541Z,8.26
2023-04-15T07:44:13.166Z,8.23
2023-04-15T07:46:39.814Z,8.35
2023-04-15T07:49:07.476Z,8.18
2023-04-15T07:51:34.088Z,8.25
2023-04-15T07:54:00.649Z,8.19
2023-04-15T07:56:27.395Z,8.23
2023-04-15T07:58:54.027Z,8.43
2023-04-15T08:01:21.112Z,8.39
2023-04-15T08:03:48.539Z,8.40
2023-04-15T08:06:15.730Z,8.61
2023-04-15T08:08:43.072Z,8.62
2023-04-15T08:11:09.728Z,8.79
2023-04-15T08:13:36.316Z,8.78
2023-04-15T08:16:16.696Z,8.91
2023-04-15T08:18:43.417Z,8.90
2023-04-15T08:21:10.517Z,8.82
2023-04-15T08:23:37.044Z,8.95
2023-04-15T08:26:03.581Z,9.06
2023-04-15T08:28:30.698Z,9.07
2023-04-15T08:30:57.274Z,8.96
2023-04-15T08:33:23.781Z,8.92
2023-04-15T08:35:50.521Z,8.90
2023-04-15T08:38:17.582Z,9.00
2023-04-15T08:40:45.702Z,9.03
2023-04-15T08:43:26.479Z,9.18
2023-04-15T08:45:53.385Z,9.21
2023-04-15T08:48:20.616Z,9.29
2023-04-15T08:50:48.033Z,9.37
2023-04-15T08:53:15.575Z,9.32
2023-04-15T08:55:46.747Z,9.45
2023-04-15T08:58:14.290Z,9.31
2023-04-15T09:00:42.390Z,9.40
2023-04-15T09:03:09.485Z,9.32
2023-04-15T09:05:37.274Z,9.34
2023-04-15T09:08:05.281Z,9.31
2023-04-15T09:10:33.208Z,9.24
2023-04-15T09:12:59.742Z,9.34
2023-04-15T09:15:27.599Z,9.43
2023-04-15T09:17:54.275Z,9.41
2023-04-15T09:20:21.112Z,9.25
2023-04-15T09:22:49.426Z,9.07
2023-04-15T09:25:16.307Z,8.86
2023-04-15T09:28:09.270Z,8.56
2023-04-15T09:30:35.875Z,8.63
2023-04-15T09:33:04.972Z,8.59
2023-04-15T09:35:31.501Z,8.59
2023-04-15T09:38:09.753Z,8.55
2023-04-15T09:40:38.716Z,8.58
2023-04-15T09:43:06.301Z,8.54
2023-04-15T09:45:34.147Z,8.51
2023-04-15T09:48:18.960Z,8.50
2023-04-15T09:50:45.532Z,8.39
2023-04-15T09:53:16.903Z,8.23
2023-04-15T09:55:50.331Z,8.15
2023-04-15T09:58:21.501Z,8.17
2023-04-15T10:00:49.995Z,8.25
2023-04-15T10:03:25.126Z,8.37
2023-04-15T10:05:54.024Z,8.52
2023-04-15T10:08:22.823Z,8.42
2023-04-15T10:10:49.491Z,8.62
2023-04-15T10:13:22.381Z,8.63
2023-04-15T10:15:51.880Z,8.52
2023-04-15T10:18:21.034Z,8.54
2023-04-15T10:20:48.724Z,8.39
2023-04-15T10:23:15.906Z,8.42
2023-04-15T10:25:42.608Z,8.51
2023-04-15T10:28:09.552Z,8.60
2023-04-15T10:30:36.801Z,8.59
2023-04-15T10:33:04.434Z,8.50
2023-04-15T10:35:32.186Z,8.50
2023-04-15T10:37:59.207Z,8.53
2023-04-15T10:40:28.545Z,8.56
2023-04-15T10:42:59.951Z,8.60
2023-04-15T10:45:33.404Z,8.63
2023-04-15T10:48:03.745Z,8.68
2023-04-15T10:50:33.925Z,8.82
2023-04-15T10:53:03.720Z,8.68
2023-04-15T10:55:34.554Z,8.81
2023-04-15T10:58:02.370Z,8.89
2023-04-15T11:00:32.380Z,9.02
2023-04-15T11:03:05.109Z,9.23
2023-04-15T11:05:50.486Z,9.31
2023-04-15T11:08:17.213Z,9.34
2023-04-15T11:10:43.910Z,9.48
2023-04-15T11:13:10.664Z,9.52
2023-04-15T11:15:41.835Z,9.48
2023-04-15T11:18:13.000Z,9.68
2023-04-15T11:20:41.194Z,9.66
2023-04-15T11:23:14.271Z,9.68
2023-04-15T11:25:43.307Z,9.68
2023-04-15T11:28:12.027Z,9.75
2023-04-15T11:30:39.768Z,9.73
2023-04-15T11:33:12.026Z,9.83
2023-04-15T11:35:40.940Z,9.64
2023-04-15T11:38:12.583Z,9.71
2023-04-15T11:40:40.285Z,9.87
2023-04-15T11:43:11.685Z,9.82
2023-04-15T11:45:48.521Z,9.96
2023-04-15T11:48:15.483Z,9.98
2023-04-15T11:50:42.113Z,10.24
2023-04-15T11:53:10.985Z,10.25
2023-04-15T11:55:48.244Z,10.13
2023-04-15T11:58:18.749Z,10.09
2023-04-15T12:00:54.238Z,10.21
2023-04-15T12:03:30.992Z,10.19
2023-04-15T12:06:11.921Z,10.33
2023-04-15T12:10:33.426Z,10.10
2023-04-15T12:13:00.211Z,10.12
2023-04-15T12:15:27.223Z,10.10
2023-04-15T12:17:54.929Z,9.70
2023-04-15T12:20:25.392Z,9.86
2023-04-15T12:22:51.849Z,9.91
2023-04-15T12:25:18.483Z,9.94
2023-04-15T12:27:52.032Z,10.36
2023-04-15T12:30:18.652Z,10.57
2023-04-15T12:32:46.034Z,10.91
2023-04-15T12:35:12.458Z,10.64
2023-04-15T12:37:38.863Z,10.66
2023-04-15T12:40:08.705Z,10.73
2023-04-15T12:42:35.572Z,10.68
2023-04-15T12:45:02.457Z,10.61
2023-04-15T12:47:28.874Z,10.47
2023-04-15T12:49:55.414Z,10.54
2023-04-15T12:52:22.037Z,10.72
2023-04-15T12:54:48.598Z,10.88
2023-04-15T12:57:15.788Z,10.83
2023-04-15T12:59:42.220Z,10.63
2023-04-15T13:02:08.922Z,10.71
2023-04-15T13:04:35.554Z,10.73
2023-04-15T13:07:02.384Z,10.82
2023-04-15T13:09:28.796Z,10.69
2023-04-15T13:11:56.339Z,10.80
2023-04-15T13:14:22.996Z,10.61
2023-04-15T13:16:49.433Z,10.69
2023-04-15T13:19:16.349Z,10.75
2023-04-15T13:21:42.859Z,10.81
2023-04-15T13:24:09.742Z,10.88
2023-04-15T13:26:37.859Z,10.85
2023-04-15T13:29:04.800Z,11.10
2023-04-15T13:31:31.497Z,11.13
2023-04-15T13:33:57.985Z,11.39
2023-04-15T13:36:24.883Z,11.53
2023-04-15T13:38:51.668Z,11.70
2023-04-15T13:41:18.606Z,11.60
2023-04-15T13:43:45.638Z,11.72
2023-04-15T13:46:12.295Z,11.57
2023-04-15T13:48:38.878Z,11.68
2023-04-15T13:51:05.546Z,12.11
2023-04-15T13:53:38.458Z,12.43
2023-04-15T13:56:09.180Z,12.67
2023-04-15T13:58:36.859Z,12.02
2023-04-15T14:01:05.842Z,12.01
2023-04-15T14:03:33.415Z,12.34
2023-04-15T14:06:00.075Z,12.08
2023-04-15T14:08:27.151Z,11.98
2023-04-15T14:10:53.536Z,12.06
2023-04-15T14:13:19.982Z,12.15
2023-04-15T14:15:47.241Z,12.42
2023-04-15T14:18:13.780Z,12.51
2023-04-15T14:20:40.358Z,12.61
2023-04-15T14:23:07.285Z,12.87
2023-04-15T14:25:34.316Z,12.82
2023-04-15T14:28:02.118Z,12.69
2023-04-15T14:30:28.574Z,12.82
2023-04-15T14:32:55.173Z,12.73
2023-04-15T14:35:21.908Z,12.75
2023-04-15T14:37:48.422Z,12.57
2023-04-15T14:40:14.956Z,12.64
2023-04-15T14:42:41.492Z,12.68
2023-04-15T14:45:08.857Z,12.84
2023-04-15T14:47:35.857Z,12.93
2023-04-15T14:50:03.921Z,13.04
2023-04-15T14:52:38.675Z,12.53
2023-04-15T14:55:07.135Z,12.98
2023-04-15T14:57:33.498Z,12.87
2023-04-15T14:59:59.958Z,13.11
2023-04-15T15:02:38.387Z,13.31
2023-04-15T15:05:06.471Z,13.29
2023-04-15T15:07:33.114Z,13.04
2023-04-15T15:09:59.677Z,12.91
2023-04-15T15:12:26.182Z,12.87
2023-04-15T15:14:52.644Z,12.87
2023-04-15T15:17:19.114Z,12.73
2023-04-15T15:19:45.631Z,12.82
2023-04-15T15:22:12.337Z,12.81
2023-04-15T15:24:38.831Z,13.21
2023-04-15T15:27:05.259Z,13.29
2023-04-15T15:29:32.055Z,13.30
2023-04-15T15:31:58.834Z,12.69
2023-04-15T15:34:25.451Z,12.75
2023-04-15T15:36:52.559Z,12.89
2023-04-15T15:39:19.040Z,12.54
2023-04-15T15:41:45.534Z,12.16
2023-04-15T15:44:12.032Z,12.24
2023-04-15T15:46:38.691Z,11.93
2023-04-15T15:49:05.590Z,12.28
2023-04-15T15:51:32.895Z,12.40
2023-04-15T15:53:59.432Z,12.41
2023-04-15T15:56:26.961Z,12.22
2023-04-15T15:58:53.363Z,12.44
2023-04-15T16:01:20.967Z,12.41
2023-04-15T16:03:47.871Z,12.42
2023-04-15T16:06:14.434Z,12.36
2023-04-15T16:08:40.933Z,12.33
2023-04-15T16:11:07.439Z,12.24
2023-04-15T16:13:34.053Z,12.26
2023-04-15T16:16:00.828Z,12.29
2023-04-15T16:18:27.360Z,12.36
2023-04-15T16:20:53.824Z,12.40
2023-04-15T16:23:20.577Z,12.38
2023-04-15T16:25:47.111Z,12.28
2023-04-15T16:28:25.785Z,12.32
2023-04-15T16:30:53.493Z,12.39
2023-04-15T16:33:19.862Z,12.16
2023-04-15T16:35:46.439Z,11.93
2023-04-15T16:38:13.570Z,12.10
2023-04-15T16:40:39.987Z,12.11
2023-04-15T16:43:11.463Z,12.11
2023-04-15T16:45:38.283Z,12.02
2023-04-15T16:48:05.000Z,11.97
2023-04-15T16:50:31.584Z,11.79
2023-04-15T16:52:58.118Z,11.74
2023-04-15T16:55:25.513Z,11.74
2023-04-15T16:58:02.135Z,11.71
2023-04-15T17:00:29.858Z,11.70
2023-04-15T17:02:56.542Z,11.70
2023-04-15T17:05:23.418Z,11.62
2023-04-15T17:07:49.850Z,11.52
2023-04-15T17:10:16.472Z,11.45
2023-04-15T17:12:42.971Z,11.32
2023-04-15T17:15:09.883Z,11.29
2023-04-15T17:17:36.474Z,11.27
2023-04-15T17:20:03.720Z,11.21
2023-04-15T17:22:30.218Z,11.17
2023-04-15T17:24:56.704Z,11.02
2023-04-15T17:27:25.107Z,10.96
2023-04-15T17:29:52.159Z,10.96
2023-04-15T17:32:18.924Z,10.86
2023-04-15T17:34:50.099Z,10.77
2023-04-15T17:37:18.108Z,10.70
2023-04-15T17:39:45.728Z,10.58
2023-04-15T17:42:13.168Z,10.52
2023-04-15T17:44:39.727Z,10.44
2023-04-15T17:47:07.381Z,10.40
2023-04-15T17:49:34.334Z,10.39
2023-04-15T17:52:01.169Z,10.26
2023-04-15T17:54:27.901Z,10.24
2023-04-15T17:56:54.808Z,10.17
2023-04-15T17:59:21.628Z,10.19
2023-04-15T18:01:48.345Z,10.10
2023-04-15T18:04:15.763Z,10.08
2023-04-15T18:06:42.398Z,9.96
2023-04-15T18:09:09.213Z,9.89
2023-04-15T18:11:35.776Z,9.93
2023-04-15T18:14:04.242Z,9.83
2023-04-15T18:16:31.946Z,9.83
2023-04-15T18:18:59.462Z,9.63
2023-04-15T18:21:27.103Z,9.55
2023-04-15T18:23:53.701Z,9.54
2023-04-15T18:26:21.578Z,9.47
2023-04-15T18:28:48.068Z,9.53
2023-04-15T18:31:14.626Z,9.47
2023-04-15T18:33:41.160Z,9.39
2023-04-15T18:36:08.222Z,9.30
2023-04-15T18:38:35.504Z,9.29
2023-04-15T18:41:03.139Z,9.24
2023-04-15T18:43:29.717Z,9.25
2023-04-15T18:45:56.349Z,9.11
2023-04-15T18:48:23.389Z,9.05
2023-04-15T18:50:53.876Z,9.05
2023-04-15T18:53:21.367Z,9.07
2023-04-15T18:55:47.875Z,9.04
2023-04-15T18:58:14.356Z,8.93
2023-04-15T19:00:44.572Z,8.90
2023-04-15T19:03:11.869Z,8.84
2023-04-15T19:05:38.662Z,8.89
2023-04-15T19:08:05.589Z,8.85
2023-04-15T19:10:32.108Z,8.82
2023-04-15T19:12:58.727Z,8.77
2023-04-15T19:15:25.448Z,8.81
2023-04-15T19:17:52.088Z,8.75
2023-04-15T19:20:18.667Z,8.73
2023-04-15T19:22:45.289Z,8.71
2023-04-15T19:25:12.065Z,8.61
2023-04-15T19:27:38.665Z,8.63
2023-04-15T19:30:08.254Z,8.55
2023-04-15T19:32:36.233Z,8.48
2023-04-15T19:35:02.861Z,8.47
2023-04-15T19:37:29.349Z,8.40
2023-04-15T19:39:56.104Z,8.34
2023-04-15T19:42:22.763Z,8.34
2023-04-15T19:44:49.351Z,8.37
2023-04-15T19:47:15.919Z,8.33
2023-04-15T19:49:42.432Z,8.31
2023-04-15T19:52:08.874Z,8.22
2023-04-15T19:54:36.324Z,8.22
2023-04-15T19:57:02.985Z,8.21
2023-04-15T19:59:29.429Z,8.27
2023-04-15T20:01:56.017Z,8.38
2023-04-15T20:04:22.908Z,8.38
2023-04-15T20:06:49.798Z,8.27
2023-04-15T20:09:16.307Z,8.27
2023-04-15T20:12:45.692Z,8.25
2023-04-15T20:14:29.835Z,8.18
2023-04-15T20:16:56.316Z,8.14
2023-04-15T20:19:22.860Z,8.06
2023-04-15T20:21:51.302Z,8.02
2023-04-15T20:24:20.235Z,7.93
2023-04-15T20:26:47.162Z,7.85
2023-04-15T20:29:13.959Z,7.79
2023-04-15T20:31:40.670Z,7.77
2023-04-15T20:34:08.216Z,7.67
2023-04-15T20:36:36.419Z,7.56
2023-04-15T20:39:03.029Z,7.55
2023-04-15T20:41:29.822Z,7.52
2023-04-15T20:43:56.431Z,7.51
2023-04-15T20:46:24.084Z,7.52
2023-04-15T20:48:52.376Z,7.54
2023-04-15T20:51:18.957Z,7.57
2023-04-15T20:53:45.392Z,7.56
2023-04-15T20:56:11.806Z,7.53
2023-04-15T20:58:38.679Z,7.50
2023-04-15T21:01:05.527Z,7.53
2023-04-15T21:03:32.485Z,7.52
2023-04-15T21:05:59.225Z,7.48
2023-04-15T21:08:29.594Z,7.45
2023-04-15T21:10:57.006Z,7.48
2023-04-15T21:13:23.986Z,7.53
2023-04-15T21:15:53.391Z,7.51
2023-04-15T21:18:22.788Z,7.48
2023-04-15T21:21:00.264Z,7.43
2023-04-15T21:23:30.386Z,7.49
2023-04-15T21:25:58.406Z,7.47
2023-04-15T21:28:27.871Z,7.42
2023-04-15T21:30:54.406Z,7.40
2023-04-15T21:33:21.087Z,7.44
2023-04-15T21:35:47.750Z,7.48
2023-04-15T21:38:14.518Z,7.46
2023-04-15T21:40:41.311Z,7.48
2023-04-15T21:43:08.409Z,7.48
2023-04-15T21:45:36.041Z,7.51
2023-04-15T21:48:07.190Z,7.57
2023-04-15T21:50:36.613Z,7.48
2023-04-15T21:53:03.848Z,7.52
2023-04-15T21:55:30.517Z,7.47
2023-04-15T21:57:57.289Z,7.41
2023-04-15T22:00:24.225Z,7.41
2023-04-15T22:02:51.681Z,7.39
2023-04-15T22:05:18.756Z,7.41
2023-04-15T22:07:45.537Z,7.42
2023-04-15T22:10:12.300Z,7.46
2023-04-15T22:12:41.772Z,7.48
2023-04-15T22:15:09.002Z,7.42
2023-04-15T22:17:35.944Z,7.44
2023-04-15T22:20:03.124Z,7.45
2023-04-15T22:22:44.111Z,7.46
2023-04-15T22:25:11.733Z,7.50
2023-04-15T22:27:38.448Z,7.48
2023-04-15T22:30:06.103Z,7.47
2023-04-15T22:32:32.893Z,7.46
2023-04-15T22:34:59.604Z,7.50
2023-04-15T22:37:26.438Z,7.44
2023-04-15T22:39:53.217Z,7.46
2023-04-15T22:42:19.901Z,7.46
2023-04-15T22:44:46.606Z,7.50
2023-04-15T22:47:13.434Z,7.53
2023-04-15T22:49:41.132Z,7.52
2023-04-15T22:52:09.048Z,7.51
2023-04-15T22:54:38.894Z,7.50
2023-04-15T22:57:05.704Z,7.50
2023-04-15T22:59:32.201Z,7.53
2023-04-15T23:01:59.384Z,7.51
2023-04-15T23:04:28.090Z,7.56
2023-04-15T23:06:55.852Z,7.54
2023-04-15T23:09:22.583Z,7.49
2023-04-15T23:11:49.406Z,7.48
2023-04-15T23:14:16.719Z,7.46
2023-04-15T23:16:43.712Z,7.40
2023-04-15T23:19:11.356Z,7.37
2023-04-15T23:21:38.294Z,7.40
2023-04-15T23:24:05.472Z,7.39
2023-04-15T23:26:32.137Z,7.36
2023-04-15T23:28:59.081Z,7.20
2023-04-15T23:31:26.240Z,7.33
2023-04-15T23:33:53.499Z,7.30
2023-04-15T23:36:20.594Z,7.40
2023-04-15T23:38:47.884Z,7.19
2023-04-15T23:41:14.773Z,7.11
2023-04-15T23:43:41.445Z,7.07
2023-04-15T23:46:08.574Z,6.98
2023-04-15T23:48:35.404Z,6.95
2023-04-15T23:51:02.111Z,6.99
2023-04-15T23:53:29.829Z,6.89
2023-04-15T23:55:56.801Z,6.85
2023-04-15T23:58:23.572Z,6.76
